createdAt,value
2017-10-19T00:01:17.460Z,15.70
2017-10-19T00:03:43.730Z,15.10
2017-10-19T00:06:10.013Z,13.87
2017-10-19T00:08:36.302Z,15.10
2017-10-19T00:11:02.581Z,16.77
2017-10-19T00:13:28.840Z,14.93
2017-10-19T00:15:55.111Z,17.10
2017-10-19T00:18:21.380Z,16.10
2017-10-19T00:20:47.812Z,16.10
2017-10-19T00:23:14.094Z,17.60
2017-10-19T00:25:40.344Z,16.03
2017-10-19T00:28:06.617Z,17.70
2017-10-19T00:30:32.884Z,17.33
2017-10-19T00:32:59.157Z,16.20
2017-10-19T00:35:25.425Z,17.33
2017-10-19T00:37:51.739Z,15.77
2017-10-19T00:40:18.023Z,16.50
2017-10-19T00:42:44.291Z,15.83
2017-10-19T00:45:10.551Z,17.30
2017-10-19T00:47:36.808Z,16.03
2017-10-19T00:50:03.129Z,18.80
2017-10-19T00:52:29.391Z,16.23
2017-10-19T00:54:55.698Z,18.20
2017-10-19T00:57:21.963Z,19.23
2017-10-19T00:59:48.241Z,18.77
2017-10-19T01:02:14.519Z,18.70
2017-10-19T01:04:40.784Z,18.03
2017-10-19T01:07:07.067Z,18.20
2017-10-19T01:09:33.343Z,18.07
2017-10-19T01:11:59.622Z,18.67
2017-10-19T01:14:25.891Z,19.07
2017-10-19T01:16:52.164Z,18.80
2017-10-19T01:19:18.443Z,19.20
2017-10-19T01:21:44.716Z,17.70
2017-10-19T01:24:10.993Z,17.87
2017-10-19T01:26:37.397Z,18.70
2017-10-19T01:29:03.710Z,19.00
2017-10-19T01:31:30.002Z,14.67
2017-10-19T01:33:56.269Z,17.60
2017-10-19T01:36:22.525Z,16.33
2017-10-19T01:38:48.791Z,16.13
2017-10-19T01:41:15.072Z,14.17
2017-10-19T01:43:41.369Z,16.33
2017-10-19T01:46:07.647Z,15.33
2017-10-19T01:48:33.915Z,15.40
2017-10-19T01:51:00.248Z,15.87
2017-10-19T01:53:26.529Z,15.30
2017-10-19T01:55:52.811Z,14.57
2017-10-19T01:58:19.106Z,15.80
2017-10-19T02:00:45.379Z,14.40
2017-10-19T02:03:11.659Z,17.17
2017-10-19T02:05:37.951Z,14.77
2017-10-19T02:08:04.264Z,15.07
2017-10-19T02:10:30.563Z,15.13
2017-10-19T02:12:56.841Z,14.37
2017-10-19T02:15:23.131Z,14.73
2017-10-19T02:17:49.398Z,14.57
2017-10-19T02:20:15.662Z,14.60
2017-10-19T02:22:41.952Z,14.77
2017-10-19T02:25:08.236Z,14.60
2017-10-19T02:27:34.504Z,14.33
2017-10-19T02:30:00.816Z,15.10
2017-10-19T02:32:27.103Z,16.07
2017-10-19T02:34:53.399Z,16.40
2017-10-19T02:37:19.689Z,14.40
2017-10-19T02:39:45.965Z,15.60
2017-10-19T02:42:12.240Z,16.77
2017-10-19T02:44:38.529Z,14.87
2017-10-19T02:47:04.804Z,14.77
2017-10-19T02:49:31.092Z,14.40
2017-10-19T02:51:57.362Z,14.53
2017-10-19T02:54:23.671Z,15.63
2017-10-19T02:56:49.919Z,15.47
2017-10-19T02:59:16.180Z,15.00
2017-10-19T03:01:42.459Z,14.50
2017-10-19T03:04:08.732Z,13.80
2017-10-19T03:06:35.015Z,16.33
2017-10-19T03:09:01.287Z,16.03
2017-10-19T03:11:27.597Z,15.17
2017-10-19T03:13:53.874Z,18.77
2017-10-19T03:16:20.157Z,17.63
2017-10-19T03:18:46.610Z,17.30
2017-10-19T03:21:12.890Z,15.63
2017-10-19T03:23:39.182Z,15.97
2017-10-19T03:26:05.489Z,15.70
2017-10-19T03:28:31.814Z,17.23
2017-10-19T03:30:58.087Z,14.60
2017-10-19T03:33:24.368Z,14.40
2017-10-19T03:35:50.656Z,15.43
2017-10-19T03:38:16.949Z,14.30
2017-10-19T03:40:43.266Z,14.67
2017-10-19T03:43:09.533Z,16.23
2017-10-19T03:45:35.809Z,12.57
2017-10-19T03:48:02.117Z,15.93
2017-10-19T03:50:28.398Z,13.40
2017-10-19T03:52:54.703Z,14.30
2017-10-19T03:55:21.042Z,14.00
2017-10-19T03:57:47.321Z,14.40
2017-10-19T04:00:13.577Z,16.00
2017-10-19T04:02:39.850Z,14.13
2017-10-19T04:05:06.170Z,14.70
2017-10-19T04:07:32.549Z,14.57
2017-10-19T04:09:58.819Z,15.60
2017-10-19T04:12:25.103Z,14.30
2017-10-19T04:14:51.376Z,16.40
2017-10-19T04:17:17.662Z,17.63
2017-10-19T04:19:43.929Z,15.20
2017-10-19T04:22:10.192Z,15.57
2017-10-19T04:24:36.469Z,15.87
2017-10-19T04:27:02.742Z,15.00
2017-10-19T04:29:29.066Z,14.70
2017-10-19T04:31:55.319Z,16.00
2017-10-19T04:34:21.589Z,19.50
2017-10-19T04:36:47.861Z,14.60
2017-10-19T04:39:14.142Z,14.67
2017-10-19T04:41:40.471Z,15.73
2017-10-19T04:44:06.736Z,15.27
2017-10-19T04:46:33.023Z,14.73
2017-10-19T04:48:59.335Z,18.37
2017-10-19T04:51:25.603Z,16.10
2017-10-19T04:53:51.895Z,16.30
2017-10-19T04:56:18.169Z,14.93
2017-10-19T04:58:44.493Z,14.80
2017-10-19T05:01:10.784Z,14.17
2017-10-19T05:03:37.073Z,15.73
2017-10-19T05:06:03.357Z,12.77
2017-10-19T05:08:29.426Z,12.70
2017-10-19T05:10:55.712Z,13.77
2017-10-19T05:13:21.996Z,10.83
2017-10-19T05:15:48.272Z,9.20
2017-10-19T05:18:14.557Z,10.20
2017-10-19T05:20:40.818Z,10.30
2017-10-19T05:23:07.064Z,12.33
2017-10-19T05:25:33.349Z,9.47
2017-10-19T05:27:59.607Z,9.23
2017-10-19T05:30:25.988Z,9.90
2017-10-19T05:32:52.251Z,9.60
2017-10-19T05:35:18.531Z,9.00
2017-10-19T05:37:44.786Z,9.67
2017-10-19T05:40:11.049Z,10.00
2017-10-19T05:42:37.308Z,8.13
2017-10-19T05:45:03.588Z,10.23
2017-10-19T05:47:29.882Z,9.87
2017-10-19T05:49:56.144Z,9.27
2017-10-19T05:52:22.409Z,9.90
2017-10-19T05:54:48.662Z,9.07
2017-10-19T05:57:14.974Z,8.67
2017-10-19T05:59:41.229Z,9.27
2017-10-19T06:02:07.499Z,9.43
2017-10-19T06:04:33.798Z,8.93
2017-10-19T06:07:00.056Z,8.37
2017-10-19T06:09:26.491Z,9.00
2017-10-19T06:11:52.750Z,7.93
2017-10-19T06:14:19.026Z,9.50
2017-10-19T06:16:45.342Z,9.47
2017-10-19T06:19:11.595Z,9.90
2017-10-19T06:21:37.860Z,7.90
2017-10-19T06:24:04.156Z,7.97
2017-10-19T06:26:30.418Z,8.03
2017-10-19T06:28:56.692Z,8.87
2017-10-19T06:31:23.015Z,8.53
2017-10-19T06:33:49.275Z,9.63
2017-10-19T06:36:15.528Z,7.97
2017-10-19T06:38:41.845Z,9.67
2017-10-19T06:41:08.125Z,9.50
2017-10-19T06:43:34.397Z,12.97
2017-10-19T06:46:00.715Z,10.13
2017-10-19T06:48:26.979Z,9.60
2017-10-19T06:50:53.240Z,11.43
2017-10-19T06:53:19.549Z,13.07
2017-10-19T06:55:45.807Z,10.17
2017-10-19T06:58:12.077Z,10.03
2017-10-19T07:00:38.379Z,9.90
2017-10-19T07:03:04.654Z,10.37
2017-10-19T07:05:30.939Z,11.50
2017-10-19T07:07:57.251Z,10.23
2017-10-19T07:10:23.526Z,9.00
2017-10-19T07:12:49.811Z,9.20
2017-10-19T07:15:16.126Z,9.40
2017-10-19T07:17:42.411Z,8.93
2017-10-19T07:20:08.678Z,8.23
2017-10-19T07:22:34.991Z,9.70
2017-10-19T07:25:01.263Z,10.57
2017-10-19T07:27:27.528Z,11.10
2017-10-19T07:29:53.840Z,12.10
2017-10-19T07:32:20.118Z,9.73
2017-10-19T07:34:46.400Z,9.70
2017-10-19T07:37:12.777Z,10.77
2017-10-19T07:39:39.052Z,9.87
2017-10-19T07:42:05.337Z,11.60
2017-10-19T07:44:31.634Z,12.00
2017-10-19T07:46:57.922Z,11.53
2017-10-19T07:49:24.219Z,12.80
2017-10-19T07:51:50.534Z,11.60
2017-10-19T07:54:16.802Z,14.90
2017-10-19T07:56:43.081Z,13.00
2017-10-19T07:59:09.395Z,12.80
2017-10-19T08:01:35.681Z,10.43
2017-10-19T08:04:01.975Z,12.30
2017-10-19T08:06:28.312Z,13.70
2017-10-19T08:08:54.602Z,16.20
2017-10-19T08:11:20.879Z,12.57
2017-10-19T08:13:47.189Z,11.80
2017-10-19T08:16:13.484Z,13.27
2017-10-19T08:18:39.782Z,13.17
2017-10-19T08:21:06.126Z,13.60
2017-10-19T08:23:32.415Z,13.73
2017-10-19T08:25:58.703Z,12.77
2017-10-19T08:28:25.035Z,14.37
2017-10-19T08:30:51.325Z,15.70
2017-10-19T08:33:17.625Z,14.90
2017-10-19T08:35:43.935Z,13.97
2017-10-19T08:38:10.219Z,11.17
2017-10-19T08:40:36.505Z,13.83
2017-10-19T08:43:02.820Z,15.10
2017-10-19T08:45:29.084Z,13.43
2017-10-19T08:47:55.351Z,14.83
2017-10-19T08:50:21.662Z,13.37
2017-10-19T08:52:48.122Z,12.30
2017-10-19T08:55:14.417Z,13.03
2017-10-19T08:57:40.851Z,13.17
2017-10-19T09:00:07.114Z,11.83
2017-10-19T09:02:33.436Z,14.93
2017-10-19T09:04:59.838Z,16.93
2017-10-19T09:07:26.303Z,14.23
2017-10-19T09:09:52.576Z,11.33
2017-10-19T09:12:18.857Z,12.17
2017-10-19T09:14:45.157Z,11.03
2017-10-19T09:17:11.636Z,11.03
2017-10-19T09:19:37.898Z,9.97
2017-10-19T09:22:04.171Z,10.27
2017-10-19T09:24:30.446Z,9.57
2017-10-19T09:26:56.742Z,10.90
2017-10-19T09:29:23.028Z,9.87
2017-10-19T09:31:49.305Z,10.73
2017-10-19T09:34:15.616Z,10.37
2017-10-19T09:36:41.887Z,11.33
2017-10-19T09:39:08.207Z,10.33
2017-10-19T09:41:34.470Z,13.10
2017-10-19T09:44:00.755Z,9.53
2017-10-19T09:46:27.082Z,11.47
2017-10-19T09:48:53.362Z,11.25
2017-10-19T09:51:19.634Z,12.20
2017-10-19T09:53:45.939Z,11.30
2017-10-19T09:56:12.325Z,12.20
2017-10-19T09:58:38.767Z,11.45
2017-10-19T10:01:05.049Z,10.15
2017-10-19T10:03:31.344Z,9.77
2017-10-19T10:05:57.676Z,9.10
2017-10-19T10:08:23.963Z,9.95
2017-10-19T10:10:50.231Z,8.05
2017-10-19T10:13:16.534Z,7.93
2017-10-19T10:15:42.801Z,7.65
2017-10-19T10:18:09.091Z,7.90
2017-10-19T10:20:35.363Z,11.55
2017-10-19T10:23:01.626Z,12.20
2017-10-19T10:25:27.970Z,11.10
2017-10-19T10:27:54.240Z,9.63
2017-10-19T10:30:20.518Z,7.22
2017-10-19T10:32:46.812Z,6.90
2017-10-19T10:35:13.083Z,6.53
2017-10-19T10:37:39.362Z,8.15
2017-10-19T10:40:05.645Z,6.95
2017-10-19T10:42:31.916Z,8.57
2017-10-19T10:44:58.193Z,7.47
2017-10-19T10:47:24.475Z,8.52
2017-10-19T10:49:50.738Z,7.82
2017-10-19T10:52:17.194Z,5.85
2017-10-19T10:54:43.459Z,6.10
2017-10-19T10:57:09.736Z,5.95
2017-10-19T10:59:36.068Z,4.70
2017-10-19T11:02:02.334Z,4.97
2017-10-19T11:04:28.613Z,5.80
2017-10-19T11:06:54.926Z,4.78
2017-10-19T11:09:21.203Z,4.82
2017-10-19T11:11:47.473Z,6.83
2017-10-19T11:14:13.742Z,4.90
2017-10-19T11:16:40.011Z,5.68
2017-10-19T11:19:06.268Z,6.53
2017-10-19T11:21:32.764Z,6.18
2017-10-19T11:23:59.027Z,5.10
2017-10-19T11:26:25.287Z,6.00
2017-10-19T11:28:51.562Z,6.53
2017-10-19T11:31:17.840Z,8.95
2017-10-19T11:33:44.103Z,6.72
2017-10-19T11:36:10.420Z,6.10
2017-10-19T11:38:36.684Z,5.55
2017-10-19T11:41:02.993Z,6.45
2017-10-19T11:43:29.251Z,6.93
2017-10-19T11:45:55.517Z,5.95
2017-10-19T11:48:21.799Z,6.05
2017-10-19T11:50:48.101Z,6.28
2017-10-19T11:53:14.525Z,7.75
2017-10-19T11:55:40.786Z,6.53
2017-10-19T11:58:07.058Z,5.75
2017-10-19T12:00:33.417Z,5.78
2017-10-19T12:02:59.766Z,5.62
2017-10-19T12:05:26.037Z,5.40
2017-10-19T12:07:52.354Z,5.45
2017-10-19T12:10:18.626Z,5.37
2017-10-19T12:12:44.883Z,7.22
2017-10-19T12:17:42.572Z,4.50
2017-10-19T12:20:08.835Z,6.40
2017-10-19T12:22:35.455Z,5.30
2017-10-19T12:25:01.720Z,5.32
2017-10-19T12:27:27.993Z,4.80
2017-10-19T12:29:54.297Z,4.93
2017-10-19T12:32:20.577Z,4.87
2017-10-19T12:34:46.834Z,6.18
2017-10-19T12:39:44.996Z,4.47
2017-10-19T12:42:11.258Z,4.22
2017-10-19T12:44:37.559Z,4.90
2017-10-19T12:47:03.862Z,5.43
2017-10-19T12:49:30.125Z,3.53
2017-10-19T12:51:56.384Z,4.75
2017-10-19T12:54:22.645Z,4.15
2017-10-19T12:56:48.935Z,4.00
2017-10-19T12:59:15.197Z,4.50
2017-10-19T13:01:41.505Z,3.75
2017-10-19T13:04:07.810Z,5.00
2017-10-19T13:06:34.059Z,4.57
2017-10-19T13:09:00.330Z,6.43
2017-10-19T13:11:26.638Z,4.93
2017-10-19T13:13:52.901Z,4.05
2017-10-19T13:16:19.171Z,4.50
2017-10-19T13:18:45.440Z,6.55
2017-10-19T13:21:11.704Z,4.07
2017-10-19T13:23:37.992Z,6.45
2017-10-19T13:26:04.247Z,5.03
2017-10-19T13:28:30.545Z,5.70
2017-10-19T13:30:56.837Z,6.70
2017-10-19T13:33:23.108Z,8.10
2017-10-19T13:35:49.371Z,9.83
2017-10-19T13:38:15.667Z,9.23
2017-10-19T13:40:41.923Z,8.57
2017-10-19T13:43:08.199Z,10.80
2017-10-19T13:45:34.453Z,12.97
2017-10-19T13:48:00.716Z,13.50
2017-10-19T13:50:27.014Z,17.97
2017-10-19T13:52:53.277Z,20.07
2017-10-19T13:55:19.544Z,15.20
2017-10-19T13:57:45.827Z,14.10
2017-10-19T14:00:12.082Z,12.97
2017-10-19T14:02:38.394Z,12.40
2017-10-19T14:05:04.664Z,12.27
2017-10-19T14:07:30.956Z,10.90
2017-10-19T14:09:57.252Z,11.83
2017-10-19T14:12:23.527Z,12.50
2017-10-19T14:14:50.178Z,13.03
2017-10-19T14:17:16.659Z,12.80
2017-10-19T14:19:43.210Z,11.20
2017-10-19T14:22:09.532Z,12.07
2017-10-19T14:24:35.804Z,11.90
2017-10-19T14:27:02.086Z,22.10
2017-10-19T14:29:28.367Z,13.50
2017-10-19T14:31:54.765Z,15.03
2017-10-19T14:34:21.045Z,15.53
2017-10-19T14:36:47.417Z,13.97
2017-10-19T14:39:13.720Z,14.97
2017-10-19T14:41:40.032Z,26.20
2017-10-19T14:44:06.292Z,26.10
2017-10-19T14:46:32.551Z,20.33
2017-10-19T14:48:58.839Z,18.27
2017-10-19T14:51:25.097Z,21.10
2017-10-19T14:53:51.386Z,18.93
2017-10-19T14:56:17.641Z,21.23
2017-10-19T14:58:43.890Z,21.53
2017-10-19T15:01:10.224Z,24.80
2017-10-19T15:03:36.507Z,22.97
2017-10-19T15:06:02.789Z,22.97
2017-10-19T15:08:29.044Z,23.17
2017-10-19T15:10:55.302Z,24.67
2017-10-19T15:13:25.453Z,23.20
2017-10-19T15:15:51.730Z,23.13
2017-10-19T15:18:17.987Z,35.70
2017-10-19T15:20:44.308Z,23.70
2017-10-19T15:23:10.573Z,27.60
2017-10-19T15:25:36.849Z,21.97
2017-10-19T15:28:03.120Z,23.77
2017-10-19T15:30:29.382Z,23.43
2017-10-19T15:32:55.638Z,23.37
2017-10-19T15:35:21.903Z,24.87
2017-10-19T15:37:48.161Z,22.30
2017-10-19T15:40:14.421Z,24.33
2017-10-19T15:42:40.676Z,24.13
2017-10-19T15:45:07.010Z,26.43
2017-10-19T15:47:33.266Z,23.23
2017-10-19T15:49:59.507Z,24.77
2017-10-19T15:52:25.752Z,27.23
2017-10-19T15:54:51.992Z,27.00
2017-10-19T15:57:18.294Z,29.23
2017-10-19T15:59:44.566Z,36.27
2017-10-19T16:02:10.813Z,41.57
2017-10-19T16:04:37.060Z,25.60
2017-10-19T16:07:03.312Z,25.20
2017-10-19T16:09:29.607Z,30.50
2017-10-19T16:11:55.864Z,34.60
2017-10-19T16:14:22.100Z,27.00
2017-10-19T16:16:48.336Z,25.77
2017-10-19T16:19:14.576Z,27.47
2017-10-19T16:21:40.828Z,26.40
2017-10-19T16:24:07.204Z,25.87
2017-10-19T16:26:33.446Z,26.07
2017-10-19T16:28:59.696Z,29.70
2017-10-19T16:31:25.949Z,44.37
2017-10-19T16:33:52.219Z,53.23
2017-10-19T16:36:18.468Z,40.17
2017-10-19T16:38:44.704Z,35.70
2017-10-19T16:41:11.124Z,39.07
2017-10-19T16:43:37.400Z,47.87
2017-10-19T16:46:03.676Z,38.23
2017-10-19T16:48:29.970Z,41.40
2017-10-19T16:50:56.269Z,50.60
2017-10-19T16:53:22.581Z,44.20
2017-10-19T16:55:48.867Z,27.97
2017-10-19T16:58:15.132Z,30.53
2017-10-19T17:00:41.415Z,28.53
2017-10-19T17:03:07.712Z,24.03
2017-10-19T17:05:34.019Z,23.17
2017-10-19T17:08:00.326Z,24.10
2017-10-19T17:10:26.606Z,26.43
2017-10-19T17:12:52.913Z,28.50
2017-10-19T17:15:19.147Z,27.50
2017-10-19T17:17:45.410Z,24.47
2017-10-19T17:20:11.798Z,23.10
2017-10-19T17:22:38.048Z,21.43
2017-10-19T17:25:04.332Z,25.07
2017-10-19T17:27:30.574Z,22.00
2017-10-19T17:29:56.834Z,24.77
2017-10-19T17:32:23.108Z,24.07
2017-10-19T17:34:49.372Z,25.07
2017-10-19T17:37:15.659Z,25.57
2017-10-19T17:39:41.926Z,25.03
2017-10-19T17:42:08.211Z,25.60
2017-10-19T17:44:34.463Z,30.20
2017-10-19T17:47:00.739Z,26.57
2017-10-19T17:49:27.051Z,26.07
2017-10-19T17:51:53.304Z,30.83
2017-10-19T17:54:19.554Z,26.13
2017-10-19T17:56:45.857Z,29.00
2017-10-19T17:59:12.104Z,27.87
2017-10-19T18:01:38.349Z,27.63
2017-10-19T18:04:04.728Z,25.33
2017-10-19T18:06:31.070Z,25.00
2017-10-19T18:08:57.368Z,24.17
2017-10-19T18:11:23.675Z,24.17
2017-10-19T18:13:49.923Z,23.17
2017-10-19T18:16:16.393Z,22.73
2017-10-19T18:18:42.675Z,24.93
2017-10-19T18:21:08.911Z,25.50
2017-10-19T18:23:35.191Z,24.83
2017-10-19T18:26:01.451Z,25.23
2017-10-19T18:28:27.854Z,27.80
2017-10-19T18:30:54.142Z,27.33
2017-10-19T18:33:20.387Z,26.10
2017-10-19T18:35:46.645Z,26.23
2017-10-19T18:38:12.901Z,25.37
2017-10-19T18:40:39.172Z,25.73
2017-10-19T18:43:05.475Z,28.30
2017-10-19T18:45:31.771Z,28.43
2017-10-19T18:47:58.037Z,28.53
2017-10-19T18:50:24.576Z,27.00
2017-10-19T18:52:50.831Z,23.63
2017-10-19T18:55:17.458Z,30.33
2017-10-19T18:57:44.105Z,25.03
2017-10-19T19:00:10.519Z,25.53
2017-10-19T19:02:36.983Z,28.37
2017-10-19T19:05:03.481Z,24.73
2017-10-19T19:07:30.006Z,27.37
2017-10-19T19:09:56.462Z,24.97
2017-10-19T19:12:23.107Z,25.87
2017-10-19T19:14:49.555Z,23.90
2017-10-19T19:17:15.823Z,23.73
2017-10-19T19:19:42.284Z,24.00
2017-10-19T19:22:08.552Z,26.27
2017-10-19T19:24:34.799Z,26.27
2017-10-19T19:27:01.059Z,23.40
2017-10-19T19:29:27.344Z,26.97
2017-10-19T19:31:53.638Z,28.33
2017-10-19T19:34:19.908Z,26.97
2017-10-19T19:36:46.393Z,26.13
2017-10-19T19:39:12.660Z,25.97
2017-10-19T19:41:38.913Z,27.37
2017-10-19T19:44:05.184Z,25.43
2017-10-19T19:46:31.448Z,26.90
2017-10-19T19:48:57.719Z,28.30
2017-10-19T19:51:23.983Z,22.30
2017-10-19T19:53:50.235Z,28.00
2017-10-19T19:56:16.518Z,24.60
2017-10-19T19:58:42.766Z,25.97
2017-10-19T20:01:09.024Z,27.00
2017-10-19T20:03:35.276Z,29.47
2017-10-19T20:06:01.532Z,31.23
2017-10-19T20:08:27.805Z,26.23
2017-10-19T20:10:54.069Z,25.00
2017-10-19T20:13:20.332Z,28.10
2017-10-19T20:15:46.572Z,28.90
2017-10-19T20:18:12.838Z,30.90
2017-10-19T20:20:39.143Z,30.30
2017-10-19T20:23:05.397Z,25.50
2017-10-19T20:25:31.645Z,22.57
2017-10-19T20:27:57.912Z,22.30
2017-10-19T20:30:24.163Z,23.00
2017-10-19T20:32:50.432Z,25.00
2017-10-19T20:35:16.682Z,22.87
2017-10-19T20:37:42.933Z,25.57
2017-10-19T20:40:09.196Z,25.37
2017-10-19T20:42:35.454Z,27.13
2017-10-19T20:45:01.758Z,25.87
2017-10-19T20:47:28.021Z,25.10
2017-10-19T20:49:54.291Z,25.37
2017-10-19T20:52:20.546Z,23.40
2017-10-19T20:54:46.997Z,25.33
2017-10-19T20:57:13.302Z,23.47
2017-10-19T20:59:39.623Z,28.40
2017-10-19T21:02:05.887Z,26.10
2017-10-19T21:04:32.129Z,26.10
2017-10-19T21:06:58.385Z,27.33
2017-10-19T21:09:24.636Z,26.63
2017-10-19T21:11:50.879Z,25.10
2017-10-19T21:14:17.116Z,29.83
2017-10-19T21:16:43.355Z,23.73
2017-10-19T21:19:09.605Z,26.90
2017-10-19T21:21:35.834Z,26.90
2017-10-19T21:24:02.109Z,25.37
2017-10-19T21:26:28.389Z,23.73
2017-10-19T21:28:54.687Z,26.63
2017-10-19T21:31:20.944Z,25.60
2017-10-19T21:33:47.250Z,25.40
2017-10-19T21:36:13.503Z,24.13
2017-10-19T21:38:39.761Z,26.90
2017-10-19T21:41:06.019Z,25.33
2017-10-19T21:43:32.356Z,24.23
2017-10-19T21:45:58.628Z,24.77
2017-10-19T21:48:24.882Z,22.67
2017-10-19T21:50:51.131Z,25.53
2017-10-19T21:53:17.394Z,25.10
2017-10-19T21:55:43.648Z,24.43
2017-10-19T21:58:09.946Z,24.23
2017-10-19T22:00:36.185Z,24.20
2017-10-19T22:03:02.439Z,22.77
2017-10-19T22:05:28.676Z,23.80
2017-10-19T22:07:55.048Z,25.37
2017-10-19T22:10:21.348Z,27.90
2017-10-19T22:12:47.602Z,25.70
2017-10-19T22:15:13.868Z,23.57
2017-10-19T22:17:40.058Z,25.00
2017-10-19T22:20:06.255Z,24.77
2017-10-19T22:22:32.468Z,24.20
2017-10-19T22:24:58.677Z,25.67
2017-10-19T22:27:24.900Z,25.07
2017-10-19T22:29:51.092Z,27.87
2017-10-19T22:32:17.276Z,24.20
2017-10-19T22:34:43.478Z,23.27
2017-10-19T22:37:09.682Z,22.20
2017-10-19T22:39:35.857Z,21.07
2017-10-19T22:42:02.066Z,21.50
2017-10-19T22:44:28.284Z,21.77
2017-10-19T22:46:54.500Z,23.67
2017-10-19T22:49:20.690Z,23.43
2017-10-19T22:51:46.866Z,22.93
2017-10-19T22:54:13.071Z,23.40
2017-10-19T22:56:39.264Z,20.60
2017-10-19T22:59:05.601Z,24.53
2017-10-19T23:01:31.819Z,25.03
2017-10-19T23:03:58.010Z,19.97
2017-10-19T23:06:24.208Z,20.37
2017-10-19T23:08:50.414Z,20.87
2017-10-19T23:11:16.770Z,21.70
2017-10-19T23:13:43.014Z,21.47
2017-10-19T23:16:09.257Z,23.90
2017-10-19T23:18:35.507Z,21.03
2017-10-19T23:21:01.765Z,19.63
2017-10-19T23:23:28.064Z,20.20
2017-10-19T23:25:54.350Z,20.03
2017-10-19T23:28:20.595Z,19.60
2017-10-19T23:30:47.022Z,21.20
2017-10-19T23:33:13.280Z,22.10
2017-10-19T23:35:39.574Z,24.17
2017-10-19T23:38:05.812Z,23.47
2017-10-19T23:40:32.070Z,21.97
2017-10-19T23:42:58.364Z,21.60
2017-10-19T23:45:24.617Z,22.10
2017-10-19T23:47:50.889Z,23.50
2017-10-19T23:50:17.167Z,22.60
2017-10-19T23:52:43.504Z,24.03
2017-10-19T23:55:09.756Z,28.00
2017-10-19T23:57:36.014Z,23.70
